TimeMST,TemperatureF,Dew PointF,Humidity,Sea Level PressureIn,VisibilityMPH,Wind Direction,Wind SpeedMPH,Gust SpeedMPH,PrecipitationIn,Events,Conditions,WindDirDegrees,DateUTC
12:55 AM,45.0,26.1,48,29.86,10.0,SSW,21.9,29.9,N/A,,Clear,200,2013-01-10 07:55:00
1:55 AM,44.1,25.0,47,29.85,10.0,SSW,13.8,20.7,N/A,,Clear,200,2013-01-10 08:55:00
2:55 AM,43.0,25.0,49,29.84,10.0,SSW,16.1,24.2,N/A,,Clear,200,2013-01-10 09:55:00
3:55 AM,44.1,25.0,47,29.81,10.0,SSW,19.6,31.1,N/A,,Clear,210,2013-01-10 10:55:00
4:55 AM,42.1,23.0,47,29.81,10.0,SW,9.2,-,N/A,,Clear,230,2013-01-10 11:55:00
5:55 AM,42.1,21.9,45,29.80,10.0,SW,13.8,-,N/A,,Clear,230,2013-01-10 12:55:00
6:55 AM,42.1,21.0,43,29.79,10.0,SW,8.1,-,N/A,,Clear,220,2013-01-10 13:55:00
7:55 AM,43.0,21.0,42,29.76,10.0,SSW,20.7,33.4,N/A,,Clear,200,2013-01-10 14:55:00
8:55 AM,46.9,24.1,41,29.74,10.0,South,21.9,29.9,N/A,,Clear,190,2013-01-10 15:55:00
9:55 AM,51.1,30.0,44,29.69,10.0,SSW,28.8,34.5,N/A,,Clear,200,2013-01-10 16:55:00
10:55 AM,54.0,37.9,55,29.65,10.0,SSW,25.3,36.8,N/A,,Clear,210,2013-01-10 17:55:00
11:55 AM,54.0,39.9,59,29.60,10.0,SSW,20.7,31.1,N/A,,Clear,200,2013-01-10 18:55:00
12:55 PM,54.0,41.0,62,29.55,10.0,SSW,19.6,36.8,N/A,,Clear,200,2013-01-10 19:55:00
1:55 PM,53.1,39.9,61,29.53,10.0,South,16.1,-,N/A,,Clear,190,2013-01-10 20:55:00
2:55 PM,51.1,39.9,66,29.53,10.0,South,10.4,-,N/A,,Clear,180,2013-01-10 21:55:00
3:55 PM,48.0,39.9,74,29.51,10.0,SSE,11.5,-,N/A,,Clear,160,2013-01-10 22:55:00
4:55 PM,46.0,39.0,76,29.48,10.0,South,6.9,-,N/A,,Clear,170,2013-01-10 23:55:00
5:55 PM,44.1,37.9,79,29.47,10.0,Calm,Calm,-,N/A,,Clear,0,2013-01-11 00:55:00
6:55 PM,43.0,37.0,80,29.44,10.0,SW,4.6,-,N/A,,Clear,220,2013-01-11 01:55:00
7:55 PM,43.0,37.0,80,29.44,10.0,SSW,5.8,-,N/A,,Clear,200,2013-01-11 02:55:00
8:55 PM,41.0,36.0,82,29.43,10.0,Calm,Calm,-,N/A,,Clear,0,2013-01-11 03:55:00
9:55 PM,39.9,36.0,86,29.44,10.0,North,4.6,-,N/A,,Clear,350,2013-01-11 04:55:00
10:55 PM,41.0,30.0,65,29.42,10.0,West,12.7,-,N/A,,Clear,280,2013-01-11 05:55:00
11:55 PM,37.0,28.0,70,29.45,10.0,WNW,6.9,-,N/A,,Clear,300,2013-01-11 06:55:00